Time;durP1;ratioP1;P1;durP2;ratioP2;P2;SDS_P1;SDS_P2;PMS_P1;PMS_P2;Temp;Humidity;BMP_temperature;BMP_pressure;BME280_temperature;BME280_humidity;BME280_pressure;Samples;Min_cycle;Max_cycle;Signal;HPM_P1;HPM_P2
2022/06/04 00:01:23;;;;;;;5.20;3.30;;;13.30;85.20;;;;;;5072697;28;20502;-78
2022/06/04 00:03:50;;;;;;;3.80;2.95;;;13.30;85.30;;;;;;5082502;28;20025;-78
2022/06/04 00:06:16;;;;;;;9.30;3.58;;;13.30;85.40;;;;;;5078104;28;20024;-75
2022/06/04 00:08:41;;;;;;;6.00;3.47;;;13.30;85.40;;;;;;5054282;28;20462;-77
2022/06/04 00:16:36;;;;;;;9.10;3.10;;;13.10;85.90;;;;;;5071825;28;20497;-77
2022/06/04 00:19:03;;;;;;;6.35;3.80;;;13.10;85.80;;;;;;5072506;28;20017;-77
2022/06/04 00:21:29;;;;;;;6.75;3.42;;;13.10;86.10;;;;;;5072384;28;20060;-75
2022/06/04 00:23:55;;;;;;;5.32;3.40;;;13.00;86.50;;;;;;5071691;28;20021;-75
2022/06/04 00:26:21;;;;;;;6.75;3.65;;;13.00;86.30;;;;;;5070006;28;20444;-77
2022/06/04 00:28:47;;;;;;;15.15;4.30;;;13.00;86.20;;;;;;5065600;28;20021;-76
2022/06/04 00:31:14;;;;;;;4.97;3.17;;;12.90;86.50;;;;;;5065574;28;20036;-76
2022/06/04 00:33:40;;;;;;;8.45;3.35;;;12.90;86.80;;;;;;5053695;28;20050;-75
2022/06/04 00:36:06;;;;;;;8.48;3.83;;;12.90;86.70;;;;;;5071536;28;20028;-76
2022/06/04 00:38:33;;;;;;;6.68;3.60;;;12.90;86.70;;;;;;5071980;28;20032;-76
2022/06/04 00:41:03;;;;;;;7.78;3.55;;;12.90;86.80;;;;;;5071563;28;20031;-76
2022/06/04 00:43:29;;;;;;;5.05;3.13;;;12.80;86.80;;;;;;5069667;28;20078;-76
2022/06/04 00:46:16;;;;;;;8.23;3.20;;;12.80;87.00;;;;;;5071775;28;20025;-76
2022/06/04 00:48:42;;;;;;;4.72;3.60;;;12.80;86.90;;;;;;5058841;28;20040;-76
2022/06/04 00:51:08;;;;;;;7.07;2.85;;;12.80;87.40;;;;;;5072179;28;20025;-76
2022/06/04 00:53:35;;;;;;;7.50;2.92;;;12.80;87.50;;;;;;5071612;28;20024;-77
2022/06/04 00:56:18;;;;;;;3.70;2.95;;;12.70;87.40;;;;;;5071565;28;20036;-76
2022/06/04 00:58:53;;;;;;;3.80;3.25;;;12.70;87.50;;;;;;5068932;28;20017;-77
2022/06/04 01:01:22;;;;;;;7.50;3.40;;;12.70;87.40;;;;;;5091315;28;20032;-76
2022/06/04 01:03:51;;;;;;;5.07;3.10;;;12.70;87.50;;;;;;5075268;28;20044;-76
2022/06/04 01:06:27;;;;;;;4.43;3.70;;;12.70;88.00;;;;;;5075477;28;20025;-75
2022/06/04 01:09:15;;;;;;;6.53;3.65;;;12.70;87.90;;;;;;5074600;28;20060;-76
2022/06/04 01:12:11;;;;;;;4.03;3.15;;;12.60;88.00;;;;;;5075241;28;20050;-76
2022/06/04 01:15:16;;;;;;;3.70;3.03;;;12.60;88.30;;;;;;5067101;28;20114;-76
2022/06/04 01:18:02;;;;;;;8.30;3.60;;;12.60;88.20;;;;;;5062236;28;20029;-75
2022/06/04 01:20:40;;;;;;;8.07;3.53;;;12.60;88.30;;;;;;5074985;28;20031;-76
2022/06/04 01:23:14;;;;;;;5.65;3.08;;;12.50;88.30;;;;;;5075207;28;20032;-75
2022/06/04 01:25:46;;;;;;;4.82;3.25;;;12.50;88.20;;;;;;5071409;28;20547;-77
2022/06/04 01:28:16;;;;;;;10.82;3.90;;;12.60;88.40;;;;;;5075079;28;20478;-78
2022/06/04 01:30:43;;;;;;;4.78;2.92;;;12.60;88.60;;;;;;5075214;28;20020;-76
2022/06/04 01:33:20;;;;;;;;;;;12.60;88.30;;;;;;5075284;28;20024;-76
2022/06/04 01:35:57;;;;;;;4.75;3.53;;;12.60;88.00;;;;;;5074664;28;19908;-75
2022/06/04 01:38:44;;;;;;;12.38;3.67;;;12.60;88.20;;;;;;5056941;28;20032;-75
2022/06/04 01:41:16;;;;;;;3.78;2.72;;;12.60;88.60;;;;;;5076991;28;20013;-76
2022/06/04 01:43:52;;;;;;;2.78;2.28;;;12.60;88.50;;;;;;5066827;28;20063;-76
2022/06/04 01:46:20;;;;;;;9.88;3.22;;;12.70;88.60;;;;;;5075821;28;20025;-76
2022/06/04 01:48:51;;;;;;;4.35;3.13;;;12.70;88.40;;;;;;5087408;28;20127;-76
2022/06/04 01:51:21;;;;;;;5.38;3.95;;;12.80;87.90;;;;;;5080141;28;20071;-75
2022/06/04 01:53:50;;;;;;;3.78;3.22;;;12.90;87.80;;;;;;5074820;28;20074;-76
2022/06/04 01:56:31;;;;;;;3.88;2.85;;;12.90;87.80;;;;;;5074614;28;20032;-75
2022/06/04 01:59:19;;;;;;;4.53;3.38;;;12.90;87.70;;;;;;5070411;28;20020;-76
2022/06/04 02:01:47;;;;;;;6.72;2.95;;;13.00;87.50;;;;;;5072351;28;20016;-75
2022/06/04 02:04:18;;;;;;;5.43;3.35;;;13.00;87.10;;;;;;5074429;28;20024;-76
2022/06/04 02:09:42;;;;;;;7.57;3.42;;;13.10;87.00;;;;;;5073618;28;20039;-77
2022/06/04 02:12:10;;;;;;;5.32;3.03;;;13.10;86.60;;;;;;5074034;28;20465;-75
2022/06/04 02:14:37;;;;;;;7.88;3.10;;;13.10;86.50;;;;;;5074414;28;20496;-75
2022/06/04 02:17:13;;;;;;;4.28;2.92;;;13.10;86.60;;;;;;5090110;28;20023;-77
2022/06/04 02:19:38;;;;;;;5.78;3.30;;;13.20;86.40;;;;;;5074150;28;20017;-76
2022/06/04 02:22:04;;;;;;;5.65;3.17;;;13.20;86.70;;;;;;5073851;28;20502;-76
2022/06/04 02:24:30;;;;;;;4.38;2.95;;;13.20;86.40;;;;;;5074145;28;20469;-75
2022/06/04 02:26:56;;;;;;;6.72;3.17;;;13.30;86.20;;;;;;5073948;28;20036;-76
2022/06/04 02:29:22;;;;;;;5.18;3.10;;;13.30;86.00;;;;;;5074101;28;20017;-76
2022/06/04 02:31:59;;;;;;;9.80;3.20;;;13.30;85.70;;;;;;5073563;28;20173;-76
2022/06/04 02:34:33;;;;;;;5.78;2.83;;;13.40;85.20;;;;;;5073661;28;20032;-76
2022/06/04 02:37:08;;;;;;;4.63;3.42;;;13.40;85.20;;;;;;5088783;28;20090;-76
2022/06/04 02:39:40;;;;;;;6.38;2.97;;;13.40;85.40;;;;;;5073463;28;20054;-77
2022/06/04 02:42:25;;;;;;;3.95;3.00;;;13.50;85.10;;;;;;5073690;28;20180;-76
2022/06/04 02:44:53;;;;;;;8.40;3.22;;;13.60;85.10;;;;;;5072547;28;20033;-77
2022/06/04 02:47:24;;;;;;;5.35;2.72;;;13.60;84.90;;;;;;5073439;28;20433;-77
2022/06/04 02:50:21;;;;;;;8.35;3.03;;;13.70;84.80;;;;;;5071329;28;20013;-75
2022/06/04 02:52:48;;;;;;;6.85;2.80;;;13.80;84.70;;;;;;5058947;28;20389;-77
2022/06/04 02:55:19;;;;;;;4.57;3.22;;;13.90;84.20;;;;;;5073744;28;20013;-77
2022/06/04 02:57:51;;;;;;;6.18;2.85;;;14.00;83.80;;;;;;5070501;28;20082;-76
2022/06/04 03:00:21;;;;;;;4.75;3.28;;;14.20;83.60;;;;;;5066445;28;20055;-77
2022/06/04 03:02:48;;;;;;;5.72;2.88;;;14.40;82.80;;;;;;5073387;28;20052;-77
2022/06/04 03:05:18;;;;;;;8.00;3.17;;;14.50;82.50;;;;;;5073472;28;20426;-76
2022/06/04 03:07:48;;;;;;;7.32;2.90;;;14.70;82.20;;;;;;5073338;28;20253;-77
2022/06/04 03:10:18;;;;;;;3.60;2.95;;;14.80;81.80;;;;;;5073146;28;20021;-75
2022/06/04 03:12:44;;;;;;;3.75;2.97;;;14.90;80.90;;;;;;5072928;28;20115;-77
2022/06/04 03:15:11;;;;;;;5.65;2.65;;;15.00;80.70;;;;;;5073068;28;20108;-76
2022/06/04 03:17:37;;;;;;;5.85;2.65;;;15.10;79.50;;;;;;5072986;28;20075;-75
2022/06/04 03:20:04;;;;;;;3.55;2.60;;;15.10;79.90;;;;;;5072626;28;20028;-76
2022/06/04 03:22:30;;;;;;;8.55;3.30;;;15.00;79.70;;;;;;5072052;28;20028;-76
2022/06/04 03:24:56;;;;;;;6.82;2.90;;;14.90;80.30;;;;;;5072880;28;20028;-77
2022/06/04 03:27:22;;;;;;;5.47;3.15;;;15.00;79.90;;;;;;5073121;28;20039;-77
2022/06/04 03:29:47;;;;;;;4.50;3.00;;;15.00;79.90;;;;;;5073144;28;20056;-76
2022/06/04 03:32:13;;;;;;;7.70;2.90;;;15.10;80.10;;;;;;5067250;28;20111;-77
2022/06/04 03:34:39;;;;;;;3.65;2.63;;;15.20;79.90;;;;;;5074158;28;20036;-76
2022/06/04 03:37:04;;;;;;;4.70;2.65;;;15.30;79.90;;;;;;5075126;28;20090;-76
2022/06/04 03:39:30;;;;;;;7.50;3.33;;;15.30;79.10;;;;;;5072406;28;20032;-77
2022/06/04 03:41:56;;;;;;;4.70;3.30;;;15.30;78.90;;;;;;5072468;28;20458;-77
2022/06/04 03:44:22;;;;;;;10.30;3.33;;;15.30;79.10;;;;;;5072042;28;20028;-78
2022/06/04 03:46:48;;;;;;;5.65;3.78;;;15.30;79.20;;;;;;5070387;28;20032;-77
2022/06/04 03:49:13;;;;;;;7.18;3.05;;;15.40;79.40;;;;;;5071185;28;20068;-77
2022/06/04 03:51:39;;;;;;;6.07;2.63;;;15.50;79.00;;;;;;5072328;28;20104;-77
2022/06/04 03:54:05;;;;;;;7.20;4.05;;;15.50;78.70;;;;;;5072070;28;20035;-76
2022/06/04 03:56:31;;;;;;;6.22;3.70;;;15.50;78.60;;;;;;5053915;28;20444;-77
2022/06/04 03:58:57;;;;;;;4.53;3.25;;;15.60;78.70;;;;;;5071843;28;20016;-76
2022/06/04 04:01:26;;;;;;;4.63;2.47;;;15.70;78.50;;;;;;5067081;28;20025;-77
2022/06/04 04:03:52;;;;;;;6.57;3.33;;;15.70;78.30;;;;;;5072025;28;20095;-76
2022/06/04 04:06:28;;;;;;;6.32;3.22;;;15.80;77.90;;;;;;5071838;28;20513;-77
2022/06/04 04:08:55;;;;;;;3.50;2.55;;;15.90;77.70;;;;;;5065304;28;20108;-76
2022/06/04 04:11:23;;;;;;;9.25;3.38;;;15.90;77.90;;;;;;5071647;28;20119;-75
2022/06/04 04:13:51;;;;;;;8.82;2.85;;;16.00;77.40;;;;;;5071734;28;20021;-76
2022/06/04 04:16:18;;;;;;;8.23;3.15;;;16.00;77.20;;;;;;5071865;28;20025;-76
2022/06/04 04:18:44;;;;;;;6.18;3.25;;;16.00;77.50;;;;;;5072119;28;20062;-76
2022/06/04 04:21:15;;;;;;;3.72;3.05;;;16.10;77.20;;;;;;5072544;28;20474;-76
2022/06/04 04:23:42;;;;;;;5.80;2.80;;;16.20;77.10;;;;;;5071574;28;20124;-77
2022/06/04 04:26:10;;;;;;;5.90;2.85;;;16.20;76.70;;;;;;5071725;28;20039;-77
2022/06/04 04:28:36;;;;;;;6.28;2.92;;;16.20;76.00;;;;;;5071552;28;20490;-77
2022/06/04 04:31:02;;;;;;;6.55;2.72;;;16.30;76.20;;;;;;5071724;28;20028;-77
2022/06/04 04:33:28;;;;;;;4.90;2.72;;;16.40;76.30;;;;;;5071557;28;20021;-76
2022/06/04 04:35:54;;;;;;;5.45;3.10;;;16.40;76.80;;;;;;5071151;28;20020;-77
2022/06/04 04:38:21;;;;;;;3.75;2.33;;;16.50;75.70;;;;;;5071429;28;20428;-76
2022/06/04 04:40:48;;;;;;;4.35;2.88;;;16.40;75.50;;;;;;5071403;28;20020;-75
2022/06/04 04:43:14;;;;;;;;;;;16.40;75.80;;;;;;5071698;28;20382;-74
2022/06/04 04:45:43;;;;;;;4.65;2.40;;;16.40;76.30;;;;;;5065103;28;19908;-77
2022/06/04 04:48:09;;;;;;;3.72;2.53;;;16.40;76.40;;;;;;5069430;28;20064;-77
2022/06/04 04:50:39;;;;;;;4.10;3.40;;;16.50;76.20;;;;;;5071595;28;20104;-77
2022/06/04 04:53:09;;;;;;;7.13;3.97;;;16.60;75.90;;;;;;5071319;28;20108;-77
2022/06/04 04:55:35;;;;;;;5.05;2.30;;;16.80;76.20;;;;;;5053408;28;20547;-77
2022/06/04 04:58:01;;;;;;;3.05;2.45;;;16.90;75.30;;;;;;5087055;28;20024;-78
2022/06/04 05:00:27;;;;;;;6.35;3.25;;;16.90;74.60;;;;;;5071486;28;20386;-78
2022/06/04 05:02:53;;;;;;;3.63;2.40;;;16.90;74.50;;;;;;5053345;28;20107;-78
2022/06/04 05:05:19;;;;;;;4.97;2.78;;;16.90;74.40;;;;;;5071358;28;20067;-78
2022/06/04 05:07:45;;;;;;;8.02;3.38;;;17.30;75.60;;;;;;5071325;28;20033;-77
2022/06/04 05:10:11;;;;;;;4.93;2.35;;;18.10;74.00;;;;;;5086880;28;20501;-78
2022/06/04 05:12:38;;;;;;;6.73;2.33;;;19.30;69.20;;;;;;5071446;28;20067;-78
2022/06/04 05:15:04;;;;;;;4.13;2.38;;;20.30;65.60;;;;;;5071325;28;20646;-78
2022/06/04 05:17:30;;;;;;;4.93;2.90;;;21.40;63.30;;;;;;5072107;28;20021;-77
2022/06/04 05:19:56;;;;;;;5.18;2.17;;;22.60;60.20;;;;;;5077862;28;20040;-78
2022/06/04 05:22:22;;;;;;;7.38;4.10;;;23.70;56.60;;;;;;5073224;28;20119;-77
2022/06/04 05:24:48;;;;;;;5.32;2.45;;;24.80;54.60;;;;;;5071320;28;20028;-77
2022/06/04 05:27:13;;;;;;;5.55;2.17;;;25.40;51.00;;;;;;5070959;28;20020;-77
2022/06/04 05:29:39;;;;;;;8.43;5.47;;;26.00;50.30;;;;;;5071067;28;20028;-79
2022/06/04 05:32:06;;;;;;;4.50;2.08;;;;;;;;;;5071126;28;20082;-79
2022/06/04 05:34:33;;;;;;;;;;;27.40;45.80;;;;;;5071315;28;20023;-78
2022/06/04 05:37:01;;;;;;;5.07;3.20;;;27.70;48.60;;;;;;5070689;28;19904;-77
2022/06/04 05:39:27;;;;;;;5.20;2.20;;;27.80;45.50;;;;;;5070361;28;20028;-79
2022/06/04 05:41:53;;;;;;;5.10;2.70;;;28.00;44.20;;;;;;5070687;28;20123;-77
2022/06/04 05:44:19;;;;;;;4.88;2.25;;;28.10;44.20;;;;;;5068004;28;20558;-76
2022/06/04 05:46:45;;;;;;;4.03;2.58;;;28.40;43.90;;;;;;5074518;28;20046;-76
2022/06/04 05:49:12;;;;;;;6.22;3.83;;;29.00;43.20;;;;;;5064025;28;20094;-76
2022/06/04 05:51:40;;;;;;;5.97;2.13;;;29.40;41.80;;;;;;5074238;28;20017;-77
2022/06/04 05:54:06;;;;;;;4.47;2.15;;;29.60;40.90;;;;;;5073961;28;20055;-76
2022/06/04 05:56:34;;;;;;;3.80;1.90;;;30.00;40.20;;;;;;5074130;28;20024;-77
2022/06/04 05:59:03;;;;;;;2.80;2.05;;;30.20;39.40;;;;;;5074016;28;20269;-76
2022/06/04 06:01:33;;;;;;;4.70;2.25;;;30.60;38.90;;;;;;5074332;28;20390;-80
2022/06/04 06:04:00;;;;;;;4.68;2.35;;;31.40;39.80;;;;;;5074217;28;20023;-78
2022/06/04 06:06:28;;;;;;;;;;;31.70;38.10;;;;;;5074477;28;20043;-78
2022/06/04 06:08:55;;;;;;;3.17;1.80;;;32.50;39.80;;;;;;5074103;28;19913;-78
2022/06/04 06:11:21;;;;;;;3.33;1.75;;;33.20;36.20;;;;;;5074530;28;20012;-78
2022/06/04 06:13:49;;;;;;;2.53;2.10;;;33.30;36.50;;;;;;5074095;28;20020;-79
2022/06/04 06:16:18;;;;;;;3.90;2.15;;;33.80;36.50;;;;;;5055834;28;20055;-77
2022/06/04 06:18:43;;;;;;;3.63;2.17;;;34.50;34.80;;;;;;5074900;28;20012;-78
2022/06/04 06:21:12;;;;;;;3.40;1.97;;;34.30;33.90;;;;;;5073924;28;20047;-78
2022/06/04 06:23:38;;;;;;;4.20;2.08;;;34.20;34.30;;;;;;5073584;28;20355;-77
2022/06/04 06:26:11;;;;;;;3.20;2.22;;;34.20;33.70;;;;;;5073683;28;20133;-79
2022/06/04 06:28:39;;;;;;;2.78;1.98;;;33.50;34.60;;;;;;5055775;28;20025;-77
2022/06/04 06:31:06;;;;;;;7.03;2.00;;;33.70;34.70;;;;;;5074249;28;20024;-77
2022/06/04 06:33:32;;;;;;;3.47;1.65;;;34.60;34.30;;;;;;5073748;28;20036;-77
2022/06/04 06:36:00;;;;;;;2.15;1.83;;;35.60;33.40;;;;;;5073276;28;20474;-78
2022/06/04 06:38:27;;;;;;;4.15;1.70;;;37.10;33.20;;;;;;5073938;28;20535;-79
2022/06/04 06:40:53;;;;;;;;;;;37.50;31.40;;;;;;5073962;28;20030;-78
2022/06/04 06:43:20;;;;;;;5.05;2.08;;;37.70;32.80;;;;;;5067255;28;19927;-78
2022/06/04 06:45:46;;;;;;;2.75;1.27;;;37.70;30.90;;;;;;5073460;28;20028;-78
2022/06/04 06:48:12;;;;;;;3.67;1.60;;;38.30;30.10;;;;;;5073275;28;20041;-75
2022/06/04 06:50:42;;;;;;;2.53;1.70;;;38.80;29.70;;;;;;5089137;28;20428;-79
2022/06/04 06:53:08;;;;;;;3.50;1.83;;;38.10;29.70;;;;;;5073036;28;20134;-76
2022/06/04 06:55:35;;;;;;;4.88;1.98;;;36.80;30.40;;;;;;5072524;28;20050;-78
2022/06/04 06:58:00;;;;;;;;;;;36.60;30.80;;;;;;5073224;28;20054;-77
2022/06/04 07:00:26;;;;;;;;;;;37.20;32.20;;;;;;5072839;28;20011;-81
2022/06/04 07:02:52;;;;;;;6.37;2.77;;;37.60;32.80;;;;;;5063399;28;19943;-83
2022/06/04 07:05:18;;;;;;;4.75;1.60;;;38.00;30.00;;;;;;5076904;28;20009;-82
2022/06/04 07:07:43;;;;;;;2.03;1.63;;;37.10;29.70;;;;;;5070984;28;20146;-89
2022/06/04 07:10:10;;;;;;;4.30;2.03;;;35.60;30.80;;;;;;5074833;28;20025;-81
2022/06/04 07:12:36;;;;;;;2.90;1.85;;;35.20;31.60;;;;;;5073117;28;20390;-79
2022/06/04 07:15:02;;;;;;;3.07;1.60;;;35.20;30.90;;;;;;5073143;28;20032;-80
2022/06/04 07:17:28;;;;;;;2.67;1.65;;;34.80;31.80;;;;;;5072959;28;20079;-81
2022/06/04 07:19:56;;;;;;;2.47;1.90;;;35.40;31.70;;;;;;5074020;28;20021;-87
2022/06/04 07:22:21;;;;;;;5.20;2.03;;;36.30;30.60;;;;;;5073137;28;20435;-82
2022/06/04 07:24:47;;;;;;;2.73;1.97;;;34.70;30.80;;;;;;5073425;28;20103;-84
2022/06/04 07:27:13;;;;;;;9.10;2.20;;;34.10;32.60;;;;;;5073902;28;20040;-86
2022/06/04 07:29:39;;;;;;;4.90;2.00;;;35.30;33.10;;;;;;5073582;28;20052;-86
2022/06/04 07:32:05;;;;;;;2.53;1.70;;;35.10;31.40;;;;;;5074742;28;20724;-86
2022/06/04 07:34:32;;;;;;;3.25;2.00;;;33.80;31.60;;;;;;5074011;28;20025;-85
2022/06/04 07:36:57;;;;;;;3.42;1.75;;;31.90;32.90;;;;;;5058507;28;20024;-85
2022/06/04 07:39:23;;;;;;;5.50;1.37;;;30.90;34.80;;;;;;5072460;28;20027;-88
2022/06/04 07:42:01;;;;;;;9.77;5.53;;;30.90;34.60;;;;;;5091974;28;20083;-87
2022/06/04 07:44:28;;;;;;;3.42;1.75;;;32.50;34.70;;;;;;5091342;28;20088;-87
2022/06/04 07:46:56;;;;;;;2.03;1.50;;;34.50;32.50;;;;;;5077390;28;20033;-85
2022/06/04 07:49:22;;;;;;;2.05;1.42;;;36.00;31.50;;;;;;5068029;28;20032;-84
2022/06/04 07:51:49;;;;;;;4.53;2.13;;;37.40;29.90;;;;;;5068072;28;20027;-82
2022/06/04 07:54:18;;;;;;;2.75;1.63;;;37.00;29.70;;;;;;5073786;28;20062;-84
2022/06/04 07:56:44;;;;;;;2.58;1.33;;;37.80;29.50;;;;;;5063767;28;20519;-84
2022/06/04 07:59:13;;;;;;;5.97;1.30;;;38.90;28.70;;;;;;5072853;28;20016;-82
2022/06/04 08:01:39;;;;;;;2.90;1.70;;;39.40;28.10;;;;;;5062839;28;20032;-83
2022/06/04 08:04:05;;;;;;;5.28;1.70;;;39.40;28.40;;;;;;5073675;28;20101;-84
2022/06/04 08:06:31;;;;;;;3.70;1.40;;;39.50;27.80;;;;;;5073449;28;20094;-84
2022/06/04 08:09:01;;;;;;;2.90;1.40;;;39.20;27.70;;;;;;5072974;28;20013;-83
2022/06/04 08:11:36;;;;;;;2.45;1.17;;;39.20;27.60;;;;;;5054342;28;20082;-83
2022/06/04 08:14:11;;;;;;;5.72;1.15;;;39.00;27.50;;;;;;5069316;28;20040;-82
2022/06/04 08:16:41;;;;;;;4.57;1.50;;;39.20;28.00;;;;;;5072176;28;20027;-84
2022/06/04 08:19:08;;;;;;;5.80;1.48;;;39.60;28.10;;;;;;5044903;28;20041;-86
2022/06/04 08:21:35;;;;;;;4.72;1.20;;;40.50;27.70;;;;;;5074086;28;20029;-87
2022/06/04 08:24:01;;;;;;;6.53;2.08;;;40.50;27.50;;;;;;5072489;28;20047;-87
2022/06/04 08:26:28;;;;;;;2.08;1.50;;;40.00;27.40;;;;;;5073011;28;20020;-87
2022/06/04 08:28:53;;;;;;;7.22;1.58;;;38.10;27.70;;;;;;5073723;28;20016;-87
2022/06/04 08:31:19;;;;;;;1.83;1.37;;;36.00;28.90;;;;;;5079144;28;20100;-87
2022/06/04 08:33:45;;;;;;;3.33;1.55;;;35.60;29.50;;;;;;5084388;28;20265;-86
2022/06/04 08:36:13;;;;;;;2.63;1.30;;;34.90;29.90;;;;;;5085272;28;20054;-84
2022/06/04 08:38:39;;;;;;;5.60;2.95;;;34.00;30.70;;;;;;5076060;28;20013;-87
2022/06/04 08:41:08;;;;;;;7.03;2.17;;;34.60;31.40;;;;;;5079223;28;20040;-87
2022/06/04 08:43:54;;;;;;;3.03;1.27;;;35.90;30.20;;;;;;5073481;28;20029;-89
2022/06/04 08:46:41;;;;;;;3.22;1.92;;;37.50;29.40;;;;;;5089103;28;20028;-85
2022/06/04 08:49:14;;;;;;;3.45;1.40;;;38.50;28.50;;;;;;5091998;28;20056;-87
2022/06/04 08:51:43;;;;;;;2.13;1.50;;;37.70;28.30;;;;;;5087700;28;20012;-85
2022/06/04 09:00:10;;;;;;;2.28;1.65;;;37.70;28.80;;;;;;5065035;28;20036;-87
2022/06/04 09:02:58;;;;;;;1.40;1.20;;;38.90;28.20;;;;;;5073823;28;20158;-89
2022/06/04 09:05:44;;;;;;;2.63;1.63;;;38.60;27.60;;;;;;5039489;28;20490;-87
2022/06/04 09:08:18;;;;;;;1.65;1.40;;;37.70;28.60;;;;;;5067622;28;20447;-84
2022/06/04 09:10:51;;;;;;;4.00;1.83;;;37.50;28.50;;;;;;5075130;28;20021;-86
2022/06/04 09:13:33;;;;;;;2.42;1.10;;;37.50;28.30;;;;;;5076299;28;20054;-86
2022/06/04 09:16:07;;;;;;;2.10;1.38;;;37.90;28.10;;;;;;5076347;28;20027;-87
2022/06/04 09:18:35;;;;;;;3.70;2.10;;;38.90;28.00;;;;;;5072747;28;20481;-86
2022/06/04 09:21:04;;;;;;;2.95;1.48;;;39.90;27.80;;;;;;5076569;28;20031;-86
2022/06/04 09:23:36;;;;;;;2.30;1.40;;;39.60;27.10;;;;;;5077411;28;20052;-83
2022/06/04 09:26:15;;;;;;;1.95;1.58;;;37.40;27.90;;;;;;5077359;28;20054;-86
2022/06/04 09:28:58;;;;;;;3.08;1.70;;;34.50;29.10;;;;;;5077581;28;20020;-85
2022/06/04 09:31:55;;;;;;;4.75;2.47;;;30.80;32.50;;;;;;5059012;28;20071;-88
2022/06/04 09:34:35;;;;;;;4.72;2.20;;;29.20;35.60;;;;;;5059309;28;20032;-89
2022/06/04 09:37:02;;;;;;;2.88;1.65;;;30.90;35.30;;;;;;5076465;28;20931;-86
2022/06/04 09:39:37;;;;;;;1.58;1.48;;;33.60;31.40;;;;;;5058673;28;20017;-87
2022/06/04 09:42:11;;;;;;;2.90;1.48;;;33.70;30.30;;;;;;5056668;28;20041;-86
2022/06/04 09:44:52;;;;;;;3.20;1.50;;;32.40;31.30;;;;;;5071432;28;20351;-82
2022/06/04 09:47:38;;;;;;;3.35;1.83;;;31.20;32.50;;;;;;5075369;28;20128;-81
2022/06/04 09:50:21;;;;;;;6.55;2.00;;;30.30;33.90;;;;;;5072474;28;20053;-82
2022/06/04 09:53:19;;;;;;;2.05;1.92;;;31.70;33.80;;;;;;5075393;28;20035;-84
2022/06/04 09:56:07;;;;;;;3.53;2.42;;;33.60;31.70;;;;;;5091276;28;20547;-84
2022/06/04 09:58:39;;;;;;;6.20;1.75;;;35.30;29.50;;;;;;5075193;28;20032;-81
2022/06/04 10:01:16;;;;;;;2.50;1.63;;;36.10;29.40;;;;;;5056857;28;20033;-82
2022/06/04 10:03:45;;;;;;;2.42;1.50;;;37.40;28.70;;;;;;5061757;28;20084;-82
2022/06/04 10:06:16;;;;;;;4.00;1.67;;;37.70;28.50;;;;;;5075866;28;20028;-82
2022/06/04 10:11:36;;;;;;;3.70;1.60;;;34.70;29.20;;;;;;5056610;28;20118;-81
2022/06/04 10:14:03;;;;;;;5.30;1.70;;;33.00;30.80;;;;;;5054679;28;20099;-83
2022/06/04 10:16:35;;;;;;;;;;;32.50;30.80;;;;;;5054843;28;20025;-84
2022/06/04 10:19:12;;;;;;;7.15;1.73;;;31.60;31.20;;;;;;5053505;28;20023;-83
2022/06/04 10:21:41;;;;;;;2.83;1.73;;;30.30;32.70;;;;;;5067544;28;20024;-81
2022/06/04 10:24:19;;;;;;;6.70;2.00;;;29.10;34.60;;;;;;5074462;28;20025;-81
2022/06/04 10:27:16;;;;;;;4.95;2.63;;;28.40;35.90;;;;;;5073953;28;20028;-81
2022/06/04 10:30:00;;;;;;;2.63;2.22;;;28.20;36.50;;;;;;5070191;28;20107;-80
2022/06/04 10:32:59;;;;;;;7.03;2.30;;;27.80;36.90;;;;;;5074889;28;20104;-81
2022/06/04 10:35:44;;;;;;;3.05;2.05;;;27.00;37.20;;;;;;5084660;28;20024;-80
2022/06/04 10:38:27;;;;;;;2.67;2.25;;;26.20;38.30;;;;;;5063394;28;20040;-80
2022/06/04 10:41:26;;;;;;;3.13;2.35;;;25.40;39.40;;;;;;5074933;28;20150;-80
2022/06/04 10:43:54;;;;;;;3.25;2.17;;;24.70;40.40;;;;;;5059421;28;20116;-82
2022/06/04 10:46:41;;;;;;;7.15;2.78;;;24.30;41.60;;;;;;5071304;28;20027;-81
2022/06/04 10:49:37;;;;;;;3.20;1.90;;;24.20;42.20;;;;;;5074221;28;20056;-84
2022/06/04 10:52:03;;;;;;;3.78;1.85;;;24.30;41.70;;;;;;5057376;28;20029;-82
2022/06/04 10:55:11;;;;;;;5.18;2.45;;;24.30;41.70;;;;;;5070584;28;20518;-80
2022/06/04 10:57:48;;;;;;;3.10;2.17;;;24.30;41.30;;;;;;5065239;28;20347;-84
2022/06/04 11:00:27;;;;;;;6.50;2.63;;;24.00;41.40;;;;;;5083378;28;20028;-82
2022/06/04 11:02:58;;;;;;;5.18;2.50;;;23.60;42.10;;;;;;5073870;28;20044;-82
2022/06/04 11:05:47;;;;;;;3.22;2.33;;;23.40;43.00;;;;;;5071559;28;20024;-83
2022/06/04 11:08:19;;;;;;;5.05;3.10;;;23.20;43.20;;;;;;5055579;28;20031;-83
2022/06/04 11:11:04;;;;;;;3.03;2.67;;;22.90;44.00;;;;;;5073490;28;20365;-82
2022/06/04 11:13:45;;;;;;;4.40;2.65;;;22.80;44.50;;;;;;5073598;28;20115;-86
2022/06/04 11:16:43;;;;;;;5.40;2.72;;;22.70;45.80;;;;;;5075642;28;20019;-81
2022/06/04 11:19:21;;;;;;;4.78;2.45;;;22.70;45.40;;;;;;5078917;28;20020;-83
2022/06/04 11:21:59;;;;;;;5.70;2.42;;;22.70;44.70;;;;;;5057865;28;20497;-83
2022/06/04 11:24:49;;;;;;;3.90;2.70;;;22.60;45.90;;;;;;5063818;28;20474;-82
2022/06/04 11:27:31;;;;;;;3.30;2.08;;;22.70;44.70;;;;;;5057091;28;20032;-83
2022/06/04 11:29:57;;;;;;;4.50;2.92;;;22.70;44.60;;;;;;5075535;28;20359;-81
2022/06/04 11:32:48;;;;;;;5.88;2.75;;;23.00;44.30;;;;;;5068911;28;20044;-83
2022/06/04 11:35:37;;;;;;;4.03;3.08;;;23.40;44.40;;;;;;5071541;28;20031;-85
2022/06/04 11:38:15;;;;;;;3.40;2.65;;;23.50;43.00;;;;;;5071757;28;20481;-85
2022/06/04 11:41:04;;;;;;;4.40;3.28;;;23.10;41.20;;;;;;5068534;28;20025;-85
2022/06/04 11:43:59;;;;;;;4.97;1.88;;;22.90;43.20;;;;;;5055732;28;20414;-85
2022/06/04 11:46:39;;;;;;;2.80;2.60;;;22.90;42.10;;;;;;5076570;28;20025;-83
2022/06/04 11:49:32;;;;;;;5.10;2.22;;;22.80;43.30;;;;;;5074793;28;20083;-84
2022/06/04 11:52:15;;;;;;;4.35;2.33;;;22.90;42.40;;;;;;5061976;28;20435;-82
2022/06/04 11:55:09;;;;;;;5.70;2.20;;;22.80;42.80;;;;;;5072802;28;20031;-83
2022/06/04 11:57:38;;;;;;;8.60;3.10;;;22.70;41.90;;;;;;5072852;28;20021;-82
2022/06/04 12:00:12;;;;;;;4.13;2.05;;;22.50;43.20;;;;;;5072121;28;20039;-81
2022/06/04 12:03:11;;;;;;;2.92;2.17;;;22.40;43.10;;;;;;5053142;28;20494;-82
2022/06/04 12:05:49;;;;;;;4.28;2.35;;;22.40;43.60;;;;;;5033763;28;20068;-80
2022/06/04 12:08:19;;;;;;;2.78;1.88;;;22.40;44.40;;;;;;5067754;28;20440;-83
2022/06/04 12:11:06;;;;;;;11.77;2.47;;;22.50;44.10;;;;;;5072268;28;20013;-83
2022/06/04 12:13:37;;;;;;;;;;;22.60;45.10;;;;;;5069735;28;20020;-82
2022/06/04 12:16:29;;;;;;;5.47;2.78;;;22.70;44.30;;;;;;5081547;28;19904;-83
2022/06/04 12:18:57;;;;;;;6.10;2.60;;;22.50;44.10;;;;;;5048505;28;20436;-82
2022/06/04 12:24:37;;;;;;;8.02;2.97;;;22.30;45.00;;;;;;5085855;28;20042;-83
2022/06/04 12:27:24;;;;;;;4.95;3.55;;;22.40;45.70;;;;;;5076796;28;20036;-82
2022/06/04 12:29:53;;;;;;;3.90;2.70;;;22.50;46.20;;;;;;5055953;28;20125;-83
2022/06/04 12:32:29;;;;;;;3.50;2.83;;;22.60;45.90;;;;;;5084050;28;20020;-84
2022/06/04 12:35:18;;;;;;;5.15;2.72;;;22.70;46.10;;;;;;5072119;28;20066;-84
2022/06/04 12:37:48;;;;;;;3.53;2.70;;;22.90;46.20;;;;;;5054463;28;20052;-85
2022/06/04 12:40:22;;;;;;;5.15;2.67;;;23.10;45.30;;;;;;5073545;28;20031;-85
2022/06/04 12:43:14;;;;;;;8.10;2.50;;;23.10;45.60;;;;;;5072240;28;20427;-86
2022/06/04 12:45:46;;;;;;;5.68;3.05;;;23.10;44.90;;;;;;5072619;28;20500;-84
2022/06/04 12:48:41;;;;;;;5.45;2.65;;;23.50;44.70;;;;;;5071687;28;20048;-85
2022/06/04 12:51:36;;;;;;;4.45;2.75;;;23.70;44.90;;;;;;5068561;28;20385;-82
2022/06/04 12:54:26;;;;;;;2.70;1.95;;;23.80;45.10;;;;;;5063944;28;20048;-83
2022/06/04 12:56:56;;;;;;;4.72;2.88;;;23.70;43.50;;;;;;5075020;28;20143;-81
2022/06/04 12:59:40;;;;;;;3.90;2.40;;;23.20;44.40;;;;;;5075253;28;20032;-85
2022/06/04 13:02:24;;;;;;;3.70;2.25;;;23.00;43.80;;;;;;5065557;28;20072;-84
2022/06/04 13:05:26;;;;;;;3.58;2.20;;;22.80;44.80;;;;;;5091156;28;20016;-83
2022/06/04 13:08:11;;;;;;;3.03;1.95;;;22.80;43.20;;;;;;5073931;28;20044;-80
2022/06/04 13:10:38;;;;;;;2.80;2.10;;;22.70;43.20;;;;;;5081357;28;20024;-83
2022/06/04 13:13:49;;;;;;;3.70;2.53;;;22.60;43.80;;;;;;5059332;28;20059;-82
2022/06/04 13:16:19;;;;;;;12.13;2.50;;;22.50;43.80;;;;;;5077671;28;20074;-84
2022/06/04 13:18:57;;;;;;;5.93;2.80;;;22.50;43.50;;;;;;5074532;28;20031;-82
2022/06/04 13:21:24;;;;;;;4.55;3.10;;;22.40;43.90;;;;;;5092568;28;20032;-89
2022/06/04 13:24:03;;;;;;;8.43;4.22;;;22.40;44.60;;;;;;5074616;28;20016;-83
2022/06/04 13:26:58;;;;;;;2.63;2.30;;;22.50;43.90;;;;;;5078145;28;20362;-82
2022/06/04 13:29:30;;;;;;;5.35;2.30;;;22.60;43.30;;;;;;5054571;28;20485;-82
2022/06/04 13:32:24;;;;;;;3.85;1.85;;;22.90;43.10;;;;;;5054843;28;20039;-84
2022/06/04 13:34:50;;;;;;;3.42;2.40;;;24.10;41.70;;;;;;5075835;28;20056;-83
2022/06/04 13:37:23;;;;;;;5.18;2.42;;;25.40;39.80;;;;;;5091033;28;20032;-85
2022/06/04 13:39:54;;;;;;;4.72;3.05;;;25.20;39.40;;;;;;5066913;28;20028;-85